sensor_id;sensor_type;location;lat;lon;timestamp;P1;durP1;ratioP1;P2;durP2;ratioP2
9218;SDS011;4644;48.858;9.184;2023-05-10T00:00:13;0.90;;;0.90;;
9218;SDS011;4644;48.858;9.184;2023-05-10T00:02:42;0.88;;;0.88;;
9218;SDS011;4644;48.858;9.184;2023-05-10T00:05:09;0.87;;;0.70;;
9218;SDS011;4644;48.858;9.184;2023-05-10T00:07:36;0.77;;;0.77;;
9218;SDS011;4644;48.858;9.184;2023-05-10T00:10:03;0.70;;;0.70;;
9218;SDS011;4644;48.858;9.184;2023-05-10T00:12:30;3.60;;;0.68;;
9218;SDS011;4644;48.858;9.184;2023-05-10T00:14:57;0.60;;;0.60;;
9218;SDS011;4644;48.858;9.184;2023-05-10T00:17:24;1.80;;;0.80;;
9218;SDS011;4644;48.858;9.184;2023-05-10T00:19:52;0.68;;;0.68;;
9218;SDS011;4644;48.858;9.184;2023-05-10T00:22:19;0.55;;;0.55;;
9218;SDS011;4644;48.858;9.184;2023-05-10T00:24:47;1.10;;;0.60;;
9218;SDS011;4644;48.858;9.184;2023-05-10T00:27:14;0.75;;;0.70;;
9218;SDS011;4644;48.858;9.184;2023-05-10T00:29:41;0.63;;;0.50;;
9218;SDS011;4644;48.858;9.184;2023-05-10T00:32:08;0.60;;;0.60;;
9218;SDS011;4644;48.858;9.184;2023-05-10T00:34:35;0.50;;;0.50;;
9218;SDS011;4644;48.858;9.184;2023-05-10T00:37:03;0.50;;;0.50;;
9218;SDS011;4644;48.858;9.184;2023-05-10T00:39:30;0.60;;;0.60;;
9218;SDS011;4644;48.858;9.184;2023-05-10T00:41:57;0.90;;;0.52;;
9218;SDS011;4644;48.858;9.184;2023-05-10T00:44:24;0.68;;;0.60;;
9218;SDS011;4644;48.858;9.184;2023-05-10T00:46:51;1.77;;;0.68;;
9218;SDS011;4644;48.858;9.184;2023-05-10T00:49:19;0.90;;;0.60;;
9218;SDS011;4644;48.858;9.184;2023-05-10T00:51:46;1.02;;;0.60;;
9218;SDS011;4644;48.858;9.184;2023-05-10T00:54:15;0.60;;;0.60;;
9218;SDS011;4644;48.858;9.184;2023-05-10T00:56:42;0.63;;;0.63;;
9218;SDS011;4644;48.858;9.184;2023-05-10T00:59:13;1.40;;;0.70;;
9218;SDS011;4644;48.858;9.184;2023-05-10T01:01:41;1.90;;;0.70;;
9218;SDS011;4644;48.858;9.184;2023-05-10T01:04:08;0.60;;;0.60;;
9218;SDS011;4644;48.858;9.184;2023-05-10T01:06:36;0.80;;;0.73;;
9218;SDS011;4644;48.858;9.184;2023-05-10T01:09:03;2.00;;;0.77;;
9218;SDS011;4644;48.858;9.184;2023-05-10T01:11:32;0.80;;;0.80;;
9218;SDS011;4644;48.858;9.184;2023-05-10T01:14:00;0.93;;;0.80;;
9218;SDS011;4644;48.858;9.184;2023-05-10T01:16:28;0.90;;;0.90;;
9218;SDS011;4644;48.858;9.184;2023-05-10T01:18:58;0.95;;;0.95;;
9218;SDS011;4644;48.858;9.184;2023-05-10T01:21:27;1.20;;;1.10;;
9218;SDS011;4644;48.858;9.184;2023-05-10T01:24:08;1.10;;;1.10;;
9218;SDS011;4644;48.858;9.184;2023-05-10T01:29:44;1.50;;;1.40;;
9218;SDS011;4644;48.858;9.184;2023-05-10T01:32:33;1.50;;;1.40;;
9218;SDS011;4644;48.858;9.184;2023-05-10T01:35:08;1.75;;;1.65;;
9218;SDS011;4644;48.858;9.184;2023-05-10T01:37:41;1.42;;;1.33;;
9218;SDS011;4644;48.858;9.184;2023-05-10T01:40:17;1.60;;;1.50;;
9218;SDS011;4644;48.858;9.184;2023-05-10T01:42:50;1.80;;;1.70;;
9218;SDS011;4644;48.858;9.184;2023-05-10T01:45:22;1.70;;;1.60;;
9218;SDS011;4644;48.858;9.184;2023-05-10T01:48:02;1.60;;;1.50;;
9218;SDS011;4644;48.858;9.184;2023-05-10T01:50:32;1.85;;;1.75;;
9218;SDS011;4644;48.858;9.184;2023-05-10T01:53:01;1.90;;;1.70;;
9218;SDS011;4644;48.858;9.184;2023-05-10T01:55:32;1.77;;;1.67;;
9218;SDS011;4644;48.858;9.184;2023-05-10T01:58:02;1.80;;;1.70;;
9218;SDS011;4644;48.858;9.184;2023-05-10T02:00:33;1.70;;;1.60;;
9218;SDS011;4644;48.858;9.184;2023-05-10T02:03:04;1.80;;;1.70;;
9218;SDS011;4644;48.858;9.184;2023-05-10T02:05:33;1.60;;;1.50;;
9218;SDS011;4644;48.858;9.184;2023-05-10T02:08:01;1.70;;;1.60;;
9218;SDS011;4644;48.858;9.184;2023-05-10T02:10:32;1.50;;;1.40;;
9218;SDS011;4644;48.858;9.184;2023-05-10T02:12:59;1.30;;;1.30;;
9218;SDS011;4644;48.858;9.184;2023-05-10T02:15:28;1.50;;;1.40;;
9218;SDS011;4644;48.858;9.184;2023-05-10T02:17:56;1.45;;;1.38;;
9218;SDS011;4644;48.858;9.184;2023-05-10T02:20:26;1.30;;;1.30;;
9218;SDS011;4644;48.858;9.184;2023-05-10T02:22:54;1.20;;;1.20;;
9218;SDS011;4644;48.858;9.184;2023-05-10T02:25:23;1.40;;;1.30;;
9218;SDS011;4644;48.858;9.184;2023-05-10T02:27:51;1.50;;;1.40;;
9218;SDS011;4644;48.858;9.184;2023-05-10T02:30:21;2.22;;;1.40;;
9218;SDS011;4644;48.858;9.184;2023-05-10T02:32:50;1.50;;;1.40;;
9218;SDS011;4644;48.858;9.184;2023-05-10T02:35:17;1.60;;;1.50;;
9218;SDS011;4644;48.858;9.184;2023-05-10T02:37:46;1.77;;;1.67;;
9218;SDS011;4644;48.858;9.184;2023-05-10T02:40:14;1.60;;;1.50;;
9218;SDS011;4644;48.858;9.184;2023-05-10T02:42:42;1.48;;;1.38;;
9218;SDS011;4644;48.858;9.184;2023-05-10T02:45:12;3.03;;;1.60;;
9218;SDS011;4644;48.858;9.184;2023-05-10T02:47:41;1.70;;;1.60;;
9218;SDS011;4644;48.858;9.184;2023-05-10T02:50:09;1.60;;;1.50;;
9218;SDS011;4644;48.858;9.184;2023-05-10T02:52:39;1.70;;;1.60;;
9218;SDS011;4644;48.858;9.184;2023-05-10T02:55:09;1.65;;;1.55;;
9218;SDS011;4644;48.858;9.184;2023-05-10T02:57:41;1.80;;;1.70;;
9218;SDS011;4644;48.858;9.184;2023-05-10T03:00:13;1.90;;;1.45;;
9218;SDS011;4644;48.858;9.184;2023-05-10T03:02:40;2.03;;;1.77;;
9218;SDS011;4644;48.858;9.184;2023-05-10T03:05:07;1.85;;;1.75;;
9218;SDS011;4644;48.858;9.184;2023-05-10T03:07:34;1.65;;;1.55;;
9218;SDS011;4644;48.858;9.184;2023-05-10T03:10:01;1.73;;;1.63;;
9218;SDS011;4644;48.858;9.184;2023-05-10T03:12:33;2.10;;;2.00;;
9218;SDS011;4644;48.858;9.184;2023-05-10T03:15:13;2.20;;;2.10;;
9218;SDS011;4644;48.858;9.184;2023-05-10T03:17:50;2.42;;;2.00;;
9218;SDS011;4644;48.858;9.184;2023-05-10T03:20:22;2.33;;;2.22;;
9218;SDS011;4644;48.858;9.184;2023-05-10T03:22:53;2.60;;;2.40;;
9218;SDS011;4644;48.858;9.184;2023-05-10T03:25:25;2.72;;;2.53;;
9218;SDS011;4644;48.858;9.184;2023-05-10T03:27:55;2.70;;;2.50;;
9218;SDS011;4644;48.858;9.184;2023-05-10T03:30:23;2.40;;;2.20;;
9218;SDS011;4644;48.858;9.184;2023-05-10T03:32:50;3.40;;;2.70;;
9218;SDS011;4644;48.858;9.184;2023-05-10T03:35:17;2.83;;;2.20;;
9218;SDS011;4644;48.858;9.184;2023-05-10T03:37:44;4.63;;;2.42;;
9218;SDS011;4644;48.858;9.184;2023-05-10T03:40:12;2.20;;;2.10;;
9218;SDS011;4644;48.858;9.184;2023-05-10T03:42:39;2.63;;;2.33;;
9218;SDS011;4644;48.858;9.184;2023-05-10T03:45:08;4.28;;;2.15;;
9218;SDS011;4644;48.858;9.184;2023-05-10T03:47:35;2.20;;;2.10;;
9218;SDS011;4644;48.858;9.184;2023-05-10T03:50:03;2.30;;;2.20;;
9218;SDS011;4644;48.858;9.184;2023-05-10T03:52:30;2.58;;;2.38;;
9218;SDS011;4644;48.858;9.184;2023-05-10T03:54:57;2.95;;;2.65;;
9218;SDS011;4644;48.858;9.184;2023-05-10T03:57:24;3.20;;;2.90;;
9218;SDS011;4644;48.858;9.184;2023-05-10T03:59:51;2.88;;;2.67;;
9218;SDS011;4644;48.858;9.184;2023-05-10T04:02:19;3.30;;;2.70;;
9218;SDS011;4644;48.858;9.184;2023-05-10T04:04:46;2.90;;;2.70;;
9218;SDS011;4644;48.858;9.184;2023-05-10T04:07:14;3.88;;;2.72;;
9218;SDS011;4644;48.858;9.184;2023-05-10T04:09:41;2.72;;;2.53;;
9218;SDS011;4644;48.858;9.184;2023-05-10T04:12:08;2.92;;;2.50;;
9218;SDS011;4644;48.858;9.184;2023-05-10T04:14:35;3.22;;;2.38;;
9218;SDS011;4644;48.858;9.184;2023-05-10T04:17:02;2.63;;;2.42;;
9218;SDS011;4644;48.858;9.184;2023-05-10T04:19:30;2.60;;;2.40;;
9218;SDS011;4644;48.858;9.184;2023-05-10T04:21:57;2.45;;;2.25;;
9218;SDS011;4644;48.858;9.184;2023-05-10T04:24:25;3.30;;;2.50;;
9218;SDS011;4644;48.858;9.184;2023-05-10T04:26:52;2.70;;;2.50;;
9218;SDS011;4644;48.858;9.184;2023-05-10T04:29:20;2.63;;;2.42;;
9218;SDS011;4644;48.858;9.184;2023-05-10T04:31:47;2.75;;;2.50;;
9218;SDS011;4644;48.858;9.184;2023-05-10T04:34:15;3.00;;;2.80;;
9218;SDS011;4644;48.858;9.184;2023-05-10T04:36:44;3.30;;;3.00;;
9218;SDS011;4644;48.858;9.184;2023-05-10T04:39:11;2.38;;;2.20;;
9218;SDS011;4644;48.858;9.184;2023-05-10T04:41:38;2.92;;;2.33;;
9218;SDS011;4644;48.858;9.184;2023-05-10T04:44:05;2.42;;;2.10;;
9218;SDS011;4644;48.858;9.184;2023-05-10T04:46:32;3.83;;;2.13;;
9218;SDS011;4644;48.858;9.184;2023-05-10T04:48:59;2.58;;;2.20;;
9218;SDS011;4644;48.858;9.184;2023-05-10T04:51:26;2.13;;;2.00;;
9218;SDS011;4644;48.858;9.184;2023-05-10T04:53:55;3.30;;;2.08;;
9218;SDS011;4644;48.858;9.184;2023-05-10T04:56:22;4.10;;;2.05;;
9218;SDS011;4644;48.858;9.184;2023-05-10T04:58:49;3.17;;;2.05;;
9218;SDS011;4644;48.858;9.184;2023-05-10T05:01:16;3.05;;;2.10;;
9218;SDS011;4644;48.858;9.184;2023-05-10T05:03:42;3.70;;;1.90;;
9218;SDS011;4644;48.858;9.184;2023-05-10T05:06:09;2.17;;;1.90;;
9218;SDS011;4644;48.858;9.184;2023-05-10T05:08:36;2.38;;;2.10;;
9218;SDS011;4644;48.858;9.184;2023-05-10T05:11:04;2.40;;;2.10;;
9218;SDS011;4644;48.858;9.184;2023-05-10T05:13:31;2.13;;;2.00;;
9218;SDS011;4644;48.858;9.184;2023-05-10T05:15:59;2.70;;;2.00;;
9218;SDS011;4644;48.858;9.184;2023-05-10T05:18:27;2.50;;;1.85;;
9218;SDS011;4644;48.858;9.184;2023-05-10T05:20:54;2.00;;;1.90;;
9218;SDS011;4644;48.858;9.184;2023-05-10T05:23:21;2.30;;;2.00;;
9218;SDS011;4644;48.858;9.184;2023-05-10T05:25:50;3.05;;;1.90;;
9218;SDS011;4644;48.858;9.184;2023-05-10T05:28:19;2.00;;;1.90;;
9218;SDS011;4644;48.858;9.184;2023-05-10T05:30:46;2.00;;;1.80;;
9218;SDS011;4644;48.858;9.184;2023-05-10T05:33:13;1.85;;;1.75;;
9218;SDS011;4644;48.858;9.184;2023-05-10T05:35:41;2.50;;;2.30;;
9218;SDS011;4644;48.858;9.184;2023-05-10T05:38:12;2.40;;;2.00;;
9218;SDS011;4644;48.858;9.184;2023-05-10T05:40:39;2.20;;;1.90;;
9218;SDS011;4644;48.858;9.184;2023-05-10T05:43:06;1.80;;;1.70;;
9218;SDS011;4644;48.858;9.184;2023-05-10T05:45:35;4.77;;;1.83;;
9218;SDS011;4644;48.858;9.184;2023-05-10T05:48:02;1.80;;;1.70;;
9218;SDS011;4644;48.858;9.184;2023-05-10T05:50:29;1.85;;;1.75;;
9218;SDS011;4644;48.858;9.184;2023-05-10T05:52:56;2.38;;;1.77;;
9218;SDS011;4644;48.858;9.184;2023-05-10T05:55:23;1.80;;;1.70;;
9218;SDS011;4644;48.858;9.184;2023-05-10T05:57:50;4.35;;;2.00;;
9218;SDS011;4644;48.858;9.184;2023-05-10T06:00:17;3.75;;;2.00;;
9218;SDS011;4644;48.858;9.184;2023-05-10T06:02:46;2.40;;;2.20;;
9218;SDS011;4644;48.858;9.184;2023-05-10T06:05:13;3.67;;;2.00;;
9218;SDS011;4644;48.858;9.184;2023-05-10T06:07:40;2.75;;;2.22;;
9218;SDS011;4644;48.858;9.184;2023-05-10T06:10:07;2.83;;;2.20;;
9218;SDS011;4644;48.858;9.184;2023-05-10T06:12:35;2.70;;;2.50;;
9218;SDS011;4644;48.858;9.184;2023-05-10T06:15:02;2.40;;;2.20;;
9218;SDS011;4644;48.858;9.184;2023-05-10T06:17:29;3.13;;;2.22;;
9218;SDS011;4644;48.858;9.184;2023-05-10T06:19:58;2.33;;;2.15;;
9218;SDS011;4644;48.858;9.184;2023-05-10T06:22:25;4.05;;;2.30;;
9218;SDS011;4644;48.858;9.184;2023-05-10T06:24:52;3.88;;;2.33;;
9218;SDS011;4644;48.858;9.184;2023-05-10T06:27:19;4.68;;;2.50;;
9218;SDS011;4644;48.858;9.184;2023-05-10T06:29:47;3.60;;;2.63;;
9218;SDS011;4644;48.858;9.184;2023-05-10T06:32:14;5.45;;;2.90;;
9218;SDS011;4644;48.858;9.184;2023-05-10T06:34:41;2.35;;;2.08;;
9218;SDS011;4644;48.858;9.184;2023-05-10T06:37:11;2.58;;;2.30;;
9218;SDS011;4644;48.858;9.184;2023-05-10T06:39:37;3.03;;;2.20;;
9218;SDS011;4644;48.858;9.184;2023-05-10T06:42:04;2.40;;;2.20;;
9218;SDS011;4644;48.858;9.184;2023-05-10T06:44:31;2.00;;;1.80;;
9218;SDS011;4644;48.858;9.184;2023-05-10T06:46:58;2.53;;;2.10;;
9218;SDS011;4644;48.858;9.184;2023-05-10T06:49:25;2.00;;;1.80;;
9218;SDS011;4644;48.858;9.184;2023-05-10T06:51:52;1.67;;;1.57;;
9218;SDS011;4644;48.858;9.184;2023-05-10T06:54:21;1.83;;;1.70;;
9218;SDS011;4644;48.858;9.184;2023-05-10T06:56:48;1.55;;;1.45;;
9218;SDS011;4644;48.858;9.184;2023-05-10T06:59:15;4.00;;;1.60;;
9218;SDS011;4644;48.858;9.184;2023-05-10T07:01:44;1.52;;;1.42;;
9218;SDS011;4644;48.858;9.184;2023-05-10T07:04:11;1.70;;;1.60;;
9218;SDS011;4644;48.858;9.184;2023-05-10T07:06:38;2.60;;;1.70;;
9218;SDS011;4644;48.858;9.184;2023-05-10T07:09:04;2.03;;;1.42;;
9218;SDS011;4644;48.858;9.184;2023-05-10T07:11:34;1.60;;;1.50;;
9218;SDS011;4644;48.858;9.184;2023-05-10T07:14:02;2.57;;;1.60;;
9218;SDS011;4644;48.858;9.184;2023-05-10T07:16:29;2.13;;;1.50;;
9218;SDS011;4644;48.858;9.184;2023-05-10T07:18:56;3.33;;;1.40;;
9218;SDS011;4644;48.858;9.184;2023-05-10T07:21:23;2.38;;;1.30;;
9218;SDS011;4644;48.858;9.184;2023-05-10T07:23:53;2.97;;;1.50;;
9218;SDS011;4644;48.858;9.184;2023-05-10T07:26:20;1.55;;;1.20;;
9218;SDS011;4644;48.858;9.184;2023-05-10T07:28:48;1.50;;;1.30;;
9218;SDS011;4644;48.858;9.184;2023-05-10T07:31:15;1.40;;;1.27;;
9218;SDS011;4644;48.858;9.184;2023-05-10T07:33:42;2.28;;;1.35;;
9218;SDS011;4644;48.858;9.184;2023-05-10T07:36:09;1.70;;;1.00;;
9218;SDS011;4644;48.858;9.184;2023-05-10T07:38:36;1.47;;;1.20;;
9218;SDS011;4644;48.858;9.184;2023-05-10T07:41:03;1.30;;;1.20;;
9218;SDS011;4644;48.858;9.184;2023-05-10T07:43:30;2.17;;;1.30;;
9218;SDS011;4644;48.858;9.184;2023-05-10T07:45:58;1.40;;;1.00;;
9218;SDS011;4644;48.858;9.184;2023-05-10T07:48:26;0.93;;;0.90;;
9218;SDS011;4644;48.858;9.184;2023-05-10T07:50:55;1.15;;;1.05;;
9218;SDS011;4644;48.858;9.184;2023-05-10T07:53:22;1.48;;;1.08;;
9218;SDS011;4644;48.858;9.184;2023-05-10T07:55:50;0.95;;;0.95;;
9218;SDS011;4644;48.858;9.184;2023-05-10T07:58:17;1.88;;;1.00;;
9218;SDS011;4644;48.858;9.184;2023-05-10T08:00:44;0.87;;;0.87;;
9218;SDS011;4644;48.858;9.184;2023-05-10T08:03:12;1.52;;;1.00;;
9218;SDS011;4644;48.858;9.184;2023-05-10T08:05:39;0.73;;;0.73;;
9218;SDS011;4644;48.858;9.184;2023-05-10T08:08:06;1.80;;;1.10;;
9218;SDS011;4644;48.858;9.184;2023-05-10T08:10:33;0.98;;;0.88;;
9218;SDS011;4644;48.858;9.184;2023-05-10T08:13:00;1.27;;;0.93;;
9218;SDS011;4644;48.858;9.184;2023-05-10T08:15:27;1.55;;;0.90;;
9218;SDS011;4644;48.858;9.184;2023-05-10T08:17:54;0.90;;;0.90;;
9218;SDS011;4644;48.858;9.184;2023-05-10T08:20:22;0.90;;;0.90;;
9218;SDS011;4644;48.858;9.184;2023-05-10T08:22:49;0.70;;;0.70;;
9218;SDS011;4644;48.858;9.184;2023-05-10T08:25:16;0.75;;;0.75;;
9218;SDS011;4644;48.858;9.184;2023-05-10T08:27:43;0.90;;;0.90;;
9218;SDS011;4644;48.858;9.184;2023-05-10T08:30:10;3.13;;;0.80;;
9218;SDS011;4644;48.858;9.184;2023-05-10T08:32:38;0.98;;;0.80;;
9218;SDS011;4644;48.858;9.184;2023-05-10T08:35:05;2.00;;;0.90;;
9218;SDS011;4644;48.858;9.184;2023-05-10T08:37:33;1.10;;;0.90;;
9218;SDS011;4644;48.858;9.184;2023-05-10T08:40:00;0.88;;;0.75;;
9218;SDS011;4644;48.858;9.184;2023-05-10T08:42:28;0.98;;;0.70;;
9218;SDS011;4644;48.858;9.184;2023-05-10T08:44:57;1.10;;;0.90;;
9218;SDS011;4644;48.858;9.184;2023-05-10T08:47:25;1.10;;;0.80;;
9218;SDS011;4644;48.858;9.184;2023-05-10T08:49:52;0.70;;;0.70;;
9218;SDS011;4644;48.858;9.184;2023-05-10T08:52:20;0.60;;;0.60;;
9218;SDS011;4644;48.858;9.184;2023-05-10T08:54:52;1.60;;;0.63;;
9218;SDS011;4644;48.858;9.184;2023-05-10T08:57:19;0.60;;;0.60;;
9218;SDS011;4644;48.858;9.184;2023-05-10T08:59:46;3.47;;;0.90;;
9218;SDS011;4644;48.858;9.184;2023-05-10T09:02:13;0.60;;;0.60;;
9218;SDS011;4644;48.858;9.184;2023-05-10T09:04:40;0.50;;;0.50;;
9218;SDS011;4644;48.858;9.184;2023-05-10T09:07:08;0.70;;;0.70;;
9218;SDS011;4644;48.858;9.184;2023-05-10T09:09:34;1.33;;;0.50;;
9218;SDS011;4644;48.858;9.184;2023-05-10T09:12:04;0.60;;;0.60;;
9218;SDS011;4644;48.858;9.184;2023-05-10T09:14:32;0.60;;;0.60;;
9218;SDS011;4644;48.858;9.184;2023-05-10T09:17:00;0.70;;;0.70;;
9218;SDS011;4644;48.858;9.184;2023-05-10T09:19:28;0.57;;;0.57;;
9218;SDS011;4644;48.858;9.184;2023-05-10T09:21:54;0.80;;;0.60;;
9218;SDS011;4644;48.858;9.184;2023-05-10T09:24:25;0.50;;;0.50;;
9218;SDS011;4644;48.858;9.184;2023-05-10T09:26:52;0.60;;;0.60;;
9218;SDS011;4644;48.858;9.184;2023-05-10T09:29:21;0.88;;;0.70;;
9218;SDS011;4644;48.858;9.184;2023-05-10T09:31:48;0.60;;;0.60;;
9218;SDS011;4644;48.858;9.184;2023-05-10T09:34:18;1.80;;;0.70;;
9218;SDS011;4644;48.858;9.184;2023-05-10T09:36:50;0.70;;;0.70;;
9218;SDS011;4644;48.858;9.184;2023-05-10T09:39:17;0.60;;;0.60;;
9218;SDS011;4644;48.858;9.184;2023-05-10T09:41:45;1.58;;;0.70;;
9218;SDS011;4644;48.858;9.184;2023-05-10T09:44:12;1.10;;;0.57;;
9218;SDS011;4644;48.858;9.184;2023-05-10T09:46:49;1.42;;;0.70;;
9218;SDS011;4644;48.858;9.184;2023-05-10T09:49:17;1.20;;;0.70;;
9218;SDS011;4644;48.858;9.184;2023-05-10T09:51:45;0.60;;;0.60;;
9218;SDS011;4644;48.858;9.184;2023-05-10T09:54:12;0.60;;;0.60;;
9218;SDS011;4644;48.858;9.184;2023-05-10T09:56:40;0.70;;;0.65;;
9218;SDS011;4644;48.858;9.184;2023-05-10T09:59:08;1.30;;;0.70;;
9218;SDS011;4644;48.858;9.184;2023-05-10T10:01:37;0.73;;;0.70;;
9218;SDS011;4644;48.858;9.184;2023-05-10T10:04:06;0.65;;;0.65;;
9218;SDS011;4644;48.858;9.184;2023-05-10T10:06:37;0.80;;;0.80;;
9218;SDS011;4644;48.858;9.184;2023-05-10T10:09:04;0.77;;;0.70;;
9218;SDS011;4644;48.858;9.184;2023-05-10T10:11:33;0.70;;;0.70;;
9218;SDS011;4644;48.858;9.184;2023-05-10T10:14:00;0.88;;;0.80;;
9218;SDS011;4644;48.858;9.184;2023-05-10T10:16:28;0.93;;;0.75;;
9218;SDS011;4644;48.858;9.184;2023-05-10T10:18:55;2.22;;;0.80;;
9218;SDS011;4644;48.858;9.184;2023-05-10T10:21:24;1.98;;;0.63;;
9218;SDS011;4644;48.858;9.184;2023-05-10T10:23:51;1.10;;;0.70;;
9218;SDS011;4644;48.858;9.184;2023-05-10T10:26:19;0.93;;;0.85;;
9218;SDS011;4644;48.858;9.184;2023-05-10T10:28:48;0.60;;;0.60;;
9218;SDS011;4644;48.858;9.184;2023-05-10T10:31:26;1.20;;;0.90;;
9218;SDS011;4644;48.858;9.184;2023-05-10T10:34:01;0.80;;;0.70;;
9218;SDS011;4644;48.858;9.184;2023-05-10T10:36:33;0.60;;;0.60;;
9218;SDS011;4644;48.858;9.184;2023-05-10T10:39:08;0.80;;;0.80;;
9218;SDS011;4644;48.858;9.184;2023-05-10T10:41:38;1.75;;;0.80;;
9218;SDS011;4644;48.858;9.184;2023-05-10T10:47:07;0.60;;;0.57;;
9218;SDS011;4644;48.858;9.184;2023-05-10T10:49:43;0.60;;;0.60;;
9218;SDS011;4644;48.858;9.184;2023-05-10T10:52:21;0.63;;;0.63;;
9218;SDS011;4644;48.858;9.184;2023-05-10T10:54:53;0.70;;;0.63;;
9218;SDS011;4644;48.858;9.184;2023-05-10T10:57:26;1.40;;;0.70;;
9218;SDS011;4644;48.858;9.184;2023-05-10T11:03:03;0.63;;;0.60;;
9218;SDS011;4644;48.858;9.184;2023-05-10T11:05:36;1.60;;;1.10;;
9218;SDS011;4644;48.858;9.184;2023-05-10T11:08:09;0.90;;;0.60;;
9218;SDS011;4644;48.858;9.184;2023-05-10T11:10:49;0.95;;;0.70;;
9218;SDS011;4644;48.858;9.184;2023-05-10T11:13:28;0.90;;;0.70;;
9218;SDS011;4644;48.858;9.184;2023-05-10T11:15:56;1.50;;;0.70;;
9218;SDS011;4644;48.858;9.184;2023-05-10T11:18:25;1.30;;;0.68;;
9218;SDS011;4644;48.858;9.184;2023-05-10T11:20:56;1.85;;;0.70;;
9218;SDS011;4644;48.858;9.184;2023-05-10T11:23:30;0.70;;;0.50;;
9218;SDS011;4644;48.858;9.184;2023-05-10T11:25:58;2.22;;;0.70;;
9218;SDS011;4644;48.858;9.184;2023-05-10T11:28:26;2.58;;;0.75;;
9218;SDS011;4644;48.858;9.184;2023-05-10T11:30:53;1.45;;;0.68;;
9218;SDS011;4644;48.858;9.184;2023-05-10T11:33:21;0.82;;;0.60;;
9218;SDS011;4644;48.858;9.184;2023-05-10T11:35:48;1.15;;;0.80;;
9218;SDS011;4644;48.858;9.184;2023-05-10T11:38:15;2.70;;;0.70;;
9218;SDS011;4644;48.858;9.184;2023-05-10T11:40:43;1.17;;;0.80;;
9218;SDS011;4644;48.858;9.184;2023-05-10T11:43:10;1.40;;;0.80;;
9218;SDS011;4644;48.858;9.184;2023-05-10T11:45:37;1.20;;;0.77;;
9218;SDS011;4644;48.858;9.184;2023-05-10T11:48:06;0.98;;;0.82;;
9218;SDS011;4644;48.858;9.184;2023-05-10T11:50:33;1.63;;;0.80;;
9218;SDS011;4644;48.858;9.184;2023-05-10T11:53:00;2.17;;;0.93;;
9218;SDS011;4644;48.858;9.184;2023-05-10T11:55:27;1.58;;;1.30;;
9218;SDS011;4644;48.858;9.184;2023-05-10T11:58:00;1.55;;;0.90;;
9218;SDS011;4644;48.858;9.184;2023-05-10T12:00:27;1.85;;;1.00;;
9218;SDS011;4644;48.858;9.184;2023-05-10T12:02:55;2.15;;;1.10;;
9218;SDS011;4644;48.858;9.184;2023-05-10T12:05:22;2.28;;;1.10;;
9218;SDS011;4644;48.858;9.184;2023-05-10T12:07:50;1.58;;;1.20;;
9218;SDS011;4644;48.858;9.184;2023-05-10T12:10:17;1.45;;;1.00;;
9218;SDS011;4644;48.858;9.184;2023-05-10T12:12:52;2.08;;;1.00;;
9218;SDS011;4644;48.858;9.184;2023-05-10T12:15:21;2.15;;;1.10;;
9218;SDS011;4644;48.858;9.184;2023-05-10T12:17:49;2.22;;;1.00;;
9218;SDS011;4644;48.858;9.184;2023-05-10T12:20:18;1.13;;;0.90;;
9218;SDS011;4644;48.858;9.184;2023-05-10T12:22:46;1.45;;;1.05;;
9218;SDS011;4644;48.858;9.184;2023-05-10T12:25:15;5.40;;;1.10;;
9218;SDS011;4644;48.858;9.184;2023-05-10T12:27:48;1.83;;;0.80;;
9218;SDS011;4644;48.858;9.184;2023-05-10T12:30:21;2.00;;;1.20;;
9218;SDS011;4644;48.858;9.184;2023-05-10T12:32:49;1.52;;;1.15;;
9218;SDS011;4644;48.858;9.184;2023-05-10T12:35:16;1.33;;;0.98;;
9218;SDS011;4644;48.858;9.184;2023-05-10T12:37:46;1.52;;;0.80;;
9218;SDS011;4644;48.858;9.184;2023-05-10T12:40:14;3.70;;;0.82;;
9218;SDS011;4644;48.858;9.184;2023-05-10T12:42:41;2.05;;;0.70;;
9218;SDS011;4644;48.858;9.184;2023-05-10T12:45:10;1.77;;;1.00;;
9218;SDS011;4644;48.858;9.184;2023-05-10T12:47:39;2.25;;;0.88;;
9218;SDS011;4644;48.858;9.184;2023-05-10T12:50:06;1.70;;;0.75;;
9218;SDS011;4644;48.858;9.184;2023-05-10T12:52:33;4.13;;;1.00;;
9218;SDS011;4644;48.858;9.184;2023-05-10T12:55:01;2.60;;;0.80;;
9218;SDS011;4644;48.858;9.184;2023-05-10T12:57:28;1.65;;;0.80;;
9218;SDS011;4644;48.858;9.184;2023-05-10T12:59:55;2.45;;;0.90;;
9218;SDS011;4644;48.858;9.184;2023-05-10T13:02:22;1.73;;;0.80;;
9218;SDS011;4644;48.858;9.184;2023-05-10T13:04:51;2.10;;;1.10;;
9218;SDS011;4644;48.858;9.184;2023-05-10T13:07:18;1.23;;;0.80;;
9218;SDS011;4644;48.858;9.184;2023-05-10T13:09:45;1.80;;;1.00;;
9218;SDS011;4644;48.858;9.184;2023-05-10T13:12:12;1.20;;;0.90;;
9218;SDS011;4644;48.858;9.184;2023-05-10T13:14:39;1.38;;;0.80;;
9218;SDS011;4644;48.858;9.184;2023-05-10T13:17:06;1.55;;;0.80;;
9218;SDS011;4644;48.858;9.184;2023-05-10T13:19:33;1.13;;;0.80;;
9218;SDS011;4644;48.858;9.184;2023-05-10T13:22:02;1.33;;;0.82;;
9218;SDS011;4644;48.858;9.184;2023-05-10T13:24:29;0.95;;;0.80;;
9218;SDS011;4644;48.858;9.184;2023-05-10T13:26:56;1.08;;;0.90;;
9218;SDS011;4644;48.858;9.184;2023-05-10T13:29:24;1.05;;;0.90;;
9218;SDS011;4644;48.858;9.184;2023-05-10T13:31:51;0.93;;;0.90;;
9218;SDS011;4644;48.858;9.184;2023-05-10T13:34:18;2.55;;;0.98;;
9218;SDS011;4644;48.858;9.184;2023-05-10T13:36:46;2.05;;;0.85;;
9218;SDS011;4644;48.858;9.184;2023-05-10T13:39:15;2.03;;;1.00;;
9218;SDS011;4644;48.858;9.184;2023-05-10T13:41:42;1.20;;;0.90;;
9218;SDS011;4644;48.858;9.184;2023-05-10T13:44:11;1.98;;;1.00;;
9218;SDS011;4644;48.858;9.184;2023-05-10T13:46:38;1.90;;;0.95;;
9218;SDS011;4644;48.858;9.184;2023-05-10T13:49:05;1.27;;;0.85;;
9218;SDS011;4644;48.858;9.184;2023-05-10T13:51:33;2.73;;;0.83;;
9218;SDS011;4644;48.858;9.184;2023-05-10T13:54:00;1.10;;;0.87;;
9218;SDS011;4644;48.858;9.184;2023-05-10T13:56:28;2.20;;;0.80;;
9218;SDS011;4644;48.858;9.184;2023-05-10T13:58:55;2.55;;;0.90;;
9218;SDS011;4644;48.858;9.184;2023-05-10T14:01:23;1.77;;;0.80;;
9218;SDS011;4644;48.858;9.184;2023-05-10T14:03:50;1.42;;;0.70;;
9218;SDS011;4644;48.858;9.184;2023-05-10T14:06:17;1.13;;;0.90;;
9218;SDS011;4644;48.858;9.184;2023-05-10T14:08:44;1.13;;;0.85;;
9218;SDS011;4644;48.858;9.184;2023-05-10T14:11:13;1.45;;;0.80;;
9218;SDS011;4644;48.858;9.184;2023-05-10T14:13:42;1.38;;;0.90;;
9218;SDS011;4644;48.858;9.184;2023-05-10T14:16:08;1.77;;;1.07;;
9218;SDS011;4644;48.858;9.184;2023-05-10T14:18:36;1.63;;;0.90;;
9218;SDS011;4644;48.858;9.184;2023-05-10T14:21:03;2.58;;;0.90;;
9218;SDS011;4644;48.858;9.184;2023-05-10T14:23:30;1.10;;;0.80;;
9218;SDS011;4644;48.858;9.184;2023-05-10T14:25:57;1.30;;;0.85;;
9218;SDS011;4644;48.858;9.184;2023-05-10T14:28:24;1.50;;;0.90;;
9218;SDS011;4644;48.858;9.184;2023-05-10T14:30:52;1.58;;;1.10;;
9218;SDS011;4644;48.858;9.184;2023-05-10T14:33:19;1.13;;;1.00;;
9218;SDS011;4644;48.858;9.184;2023-05-10T14:35:46;1.40;;;0.98;;
9218;SDS011;4644;48.858;9.184;2023-05-10T14:38:15;2.92;;;0.80;;
9218;SDS011;4644;48.858;9.184;2023-05-10T14:40:44;1.90;;;1.20;;
9218;SDS011;4644;48.858;9.184;2023-05-10T14:43:10;1.10;;;1.00;;
9218;SDS011;4644;48.858;9.184;2023-05-10T14:45:39;2.05;;;1.00;;
9218;SDS011;4644;48.858;9.184;2023-05-10T14:48:08;1.70;;;0.90;;
9218;SDS011;4644;48.858;9.184;2023-05-10T14:50:40;2.03;;;0.90;;
9218;SDS011;4644;48.858;9.184;2023-05-10T14:53:07;1.90;;;0.80;;
9218;SDS011;4644;48.858;9.184;2023-05-10T14:55:34;2.33;;;1.10;;
9218;SDS011;4644;48.858;9.184;2023-05-10T14:58:01;2.47;;;1.00;;
9218;SDS011;4644;48.858;9.184;2023-05-10T15:00:28;1.35;;;0.80;;
9218;SDS011;4644;48.858;9.184;2023-05-10T15:02:56;1.40;;;0.85;;
9218;SDS011;4644;48.858;9.184;2023-05-10T15:05:24;1.70;;;0.80;;
9218;SDS011;4644;48.858;9.184;2023-05-10T15:07:51;2.45;;;1.20;;
9218;SDS011;4644;48.858;9.184;2023-05-10T15:10:19;0.85;;;0.80;;
9218;SDS011;4644;48.858;9.184;2023-05-10T15:12:46;3.20;;;1.03;;
9218;SDS011;4644;48.858;9.184;2023-05-10T15:15:13;1.98;;;1.00;;
9218;SDS011;4644;48.858;9.184;2023-05-10T15:17:40;3.65;;;1.10;;
9218;SDS011;4644;48.858;9.184;2023-05-10T15:20:07;2.03;;;0.85;;
9218;SDS011;4644;48.858;9.184;2023-05-10T15:22:36;0.70;;;0.70;;
9218;SDS011;4644;48.858;9.184;2023-05-10T15:25:03;1.00;;;0.70;;
9218;SDS011;4644;48.858;9.184;2023-05-10T15:27:31;2.90;;;0.70;;
9218;SDS011;4644;48.858;9.184;2023-05-10T15:29:57;1.30;;;1.00;;